createdAt,value
2022-12-15T00:00:43.689Z,96571.91
2022-12-15T00:03:31.661Z,96549.63
2022-12-15T00:06:19.546Z,96541.47
2022-12-15T00:09:09.797Z,96563.63
2022-12-15T00:12:00.091Z,96578.31
2022-12-15T00:14:46.812Z,96573.13
2022-12-15T00:17:33.682Z,96587.97
2022-12-15T00:20:20.471Z,96596.81
2022-12-15T00:23:07.047Z,96598.22
2022-12-15T00:25:53.624Z,96580.19
2022-12-15T00:28:42.405Z,96576.06
2022-12-15T00:31:30.197Z,96580.78
2022-12-15T00:34:17.050Z,96583.56
2022-12-15T00:37:03.753Z,96576.66
2022-12-15T00:39:32.101Z,96583.72
2022-12-15T00:42:00.471Z,96565.28
2022-12-15T00:44:30.037Z,96539.00
2022-12-15T00:46:58.495Z,96519.78
2022-12-15T00:49:46.642Z,96513.69
2022-12-15T00:52:33.761Z,96494.25
2022-12-15T00:55:21.239Z,96491.84
2022-12-15T00:58:09.148Z,96481.38
2022-12-15T01:00:55.725Z,96450.53
2022-12-15T01:03:43.289Z,96427.63
2022-12-15T01:06:32.282Z,96405.72
2022-12-15T01:09:19.540Z,96410.28
2022-12-15T01:12:06.147Z,96428.47
2022-12-15T01:14:54.192Z,96455.44
2022-12-15T01:17:42.266Z,96414.56
2022-12-15T01:20:23.112Z,96448.66
2022-12-15T01:22:53.807Z,96457.00
2022-12-15T01:25:25.066Z,96435.75
2022-12-15T01:27:53.598Z,96426.44
2022-12-15T01:30:26.887Z,96429.84
2022-12-15T01:32:55.390Z,96442.13
2022-12-15T01:35:24.652Z,96456.78
2022-12-15T01:37:53.220Z,96442.09
2022-12-15T01:40:40.503Z,96438.78
2022-12-15T01:43:18.788Z,96425.22
2022-12-15T01:46:08.194Z,96444.19
2022-12-15T01:48:47.455Z,96449.28
2022-12-15T01:51:27.827Z,96428.53
2022-12-15T01:54:08.096Z,96403.44
2022-12-15T01:56:46.793Z,96414.88
2022-12-15T01:59:19.981Z,96428.34
2022-12-15T02:01:50.042Z,96423.03
2022-12-15T02:04:20.007Z,96425.00
2022-12-15T02:06:48.439Z,96452.88
2022-12-15T02:09:17.821Z,96443.84
2022-12-15T02:12:10.548Z,96437.75
2022-12-15T02:14:54.017Z,96445.22
2022-12-15T02:17:43.554Z,96445.41
2022-12-15T02:20:36.833Z,96422.75
2022-12-15T02:23:31.811Z,96437.75
2022-12-15T02:26:29.774Z,96428.66
2022-12-15T02:29:13.506Z,96435.06
2022-12-15T02:31:51.233Z,96442.16
2022-12-15T02:34:43.361Z,96442.66
2022-12-15T02:37:15.688Z,96450.03
2022-12-15T02:39:44.247Z,96467.59
2022-12-15T02:42:12.913Z,96474.22
2022-12-15T02:44:51.947Z,96479.84
2022-12-15T02:47:33.007Z,96496.13
2022-12-15T02:50:04.149Z,96479.84
2022-12-15T02:52:43.101Z,96498.31
2022-12-15T02:55:32.652Z,96493.25
2022-12-15T02:58:22.095Z,96503.06
2022-12-15T03:01:19.122Z,96515.50
2022-12-15T03:03:47.726Z,96541.06
2022-12-15T03:06:16.853Z,96545.22
2022-12-15T03:08:46.422Z,96537.47
2022-12-15T03:11:14.791Z,96538.78
2022-12-15T03:13:43.228Z,96551.91
2022-12-15T03:16:11.610Z,96566.41
2022-12-15T03:18:40.387Z,96551.84
2022-12-15T03:21:09.615Z,96561.78
2022-12-15T03:23:39.640Z,96578.31
2022-12-15T03:26:08.937Z,96578.13
2022-12-15T03:28:37.904Z,96556.50
2022-12-15T03:31:06.402Z,96544.16
2022-12-15T03:33:35.156Z,96566.19
2022-12-15T03:36:04.853Z,96558.91
2022-12-15T03:38:33.306Z,96568.34
2022-12-15T03:41:01.768Z,96583.75
2022-12-15T03:43:30.463Z,96589.38
2022-12-15T03:45:59.286Z,96593.13
2022-12-15T03:48:28.806Z,96587.75
2022-12-15T03:50:57.292Z,96597.78
2022-12-15T03:53:25.674Z,96604.03
2022-12-15T03:55:54.079Z,96629.41
2022-12-15T03:58:22.801Z,96609.81
2022-12-15T04:00:52.471Z,96636.53
2022-12-15T04:03:22.044Z,96635.19
2022-12-15T04:05:50.649Z,96637.31
2022-12-15T04:08:27.006Z,96650.88
2022-12-15T04:10:55.834Z,96663.56
2022-12-15T04:13:24.278Z,96659.63
2022-12-15T04:15:52.699Z,96652.63
2022-12-15T04:18:21.772Z,96659.75
2022-12-15T04:20:50.523Z,96672.50
2022-12-15T04:23:19.167Z,96672.13
2022-12-15T04:26:06.162Z,96669.44
2022-12-15T04:28:52.962Z,96670.53
2022-12-15T04:31:42.645Z,96672.94
2022-12-15T04:34:34.209Z,96682.25
2022-12-15T04:37:21.676Z,96689.25
2022-12-15T04:40:10.123Z,96693.09
2022-12-15T04:43:02.583Z,96697.97
2022-12-15T04:45:49.273Z,96706.31
2022-12-15T04:48:36.058Z,96715.97
2022-12-15T04:51:24.126Z,96733.97
2022-12-15T04:54:11.550Z,96733.88
2022-12-15T04:56:58.137Z,96736.84
2022-12-15T04:59:44.884Z,96742.88
2022-12-15T05:02:31.757Z,96741.13
2022-12-15T05:05:18.662Z,96754.50
2022-12-15T05:08:06.092Z,96763.72
2022-12-15T05:10:53.025Z,96765.81
2022-12-15T05:13:40.503Z,96781.25
2022-12-15T05:16:27.346Z,96781.34
2022-12-15T05:19:14.488Z,96785.38
2022-12-15T05:22:01.295Z,96783.25
2022-12-15T05:24:48.118Z,96769.88
2022-12-15T05:27:35.320Z,96789.19
2022-12-15T05:30:22.703Z,96786.44
2022-12-15T05:32:51.106Z,96796.25
2022-12-15T05:35:20.494Z,96796.34
2022-12-15T05:37:48.879Z,96807.41
2022-12-15T05:40:17.279Z,96820.13
2022-12-15T05:42:49.927Z,96825.63
2022-12-15T05:45:18.765Z,96832.41
2022-12-15T05:47:52.079Z,96831.34
2022-12-15T05:50:21.839Z,96839.22
2022-12-15T05:52:50.224Z,96841.63
2022-12-15T05:55:19.316Z,96837.41
2022-12-15T05:57:54.237Z,96839.09
2022-12-15T06:00:22.794Z,96839.03
2022-12-15T06:02:52.063Z,96844.59
2022-12-15T06:05:20.588Z,96843.19
2022-12-15T06:07:49.088Z,96845.34
2022-12-15T06:10:18.057Z,96843.84
2022-12-15T06:12:46.512Z,96850.84
2022-12-15T06:15:14.910Z,96860.88
2022-12-15T06:17:44.783Z,96858.00
2022-12-15T06:20:18.012Z,96863.56
2022-12-15T06:22:49.951Z,96867.84
2022-12-15T06:25:18.725Z,96874.03
2022-12-15T06:27:47.103Z,96883.50
2022-12-15T06:30:16.485Z,96888.63
2022-12-15T06:32:45.015Z,96874.63
2022-12-15T06:35:13.466Z,96874.22
2022-12-15T06:37:41.845Z,96875.44
2022-12-15T06:40:11.333Z,96868.06
2022-12-15T06:42:39.747Z,96870.69
2022-12-15T06:45:08.925Z,96875.06
2022-12-15T06:47:38.022Z,96874.53
2022-12-15T06:50:09.021Z,96875.72
2022-12-15T06:52:37.347Z,96878.75
2022-12-15T06:55:07.830Z,96878.78
2022-12-15T06:57:36.975Z,96880.22
2022-12-15T07:00:07.188Z,96893.69
2022-12-15T07:02:36.428Z,96895.28
2022-12-15T07:05:06.016Z,96898.66
2022-12-15T07:07:34.854Z,96901.31
2022-12-15T07:10:03.376Z,96889.13
2022-12-15T07:12:32.363Z,96892.53
2022-12-15T07:15:00.762Z,96885.78
2022-12-15T07:17:29.419Z,96883.53
2022-12-15T07:19:57.852Z,96904.19
2022-12-15T07:22:26.328Z,96907.88
2022-12-15T07:24:54.682Z,96910.22
2022-12-15T07:27:23.802Z,96917.69
2022-12-15T07:29:52.741Z,96918.94
2022-12-15T07:32:21.234Z,96922.13
2022-12-15T07:34:49.555Z,96925.50
2022-12-15T07:37:18.443Z,96930.44
2022-12-15T07:39:46.848Z,96937.03
2022-12-15T07:42:15.317Z,96935.69
2022-12-15T07:44:46.755Z,96941.59
2022-12-15T07:47:18.845Z,96948.47
2022-12-15T07:49:47.459Z,96949.47
2022-12-15T07:52:16.065Z,96956.50
2022-12-15T07:54:45.617Z,96947.13
2022-12-15T07:57:14.107Z,96947.19
2022-12-15T07:59:43.200Z,96951.69
2022-12-15T08:02:12.362Z,96960.09
2022-12-15T08:04:41.001Z,96954.31
2022-12-15T08:07:10.904Z,96961.75
2022-12-15T08:09:39.270Z,96959.47
2022-12-15T08:12:07.903Z,96963.19
2022-12-15T08:14:37.302Z,96966.38
2022-12-15T08:17:07.150Z,96972.81
2022-12-15T08:19:35.514Z,96977.69
2022-12-15T08:22:03.961Z,96980.16
2022-12-15T08:24:32.434Z,96976.00
2022-12-15T08:27:00.863Z,96982.06
2022-12-15T08:29:50.827Z,96985.81
2022-12-15T08:32:18.438Z,96982.31
2022-12-15T08:34:48.239Z,96983.06
2022-12-15T08:37:16.624Z,96994.03
2022-12-15T08:39:45.130Z,96997.66
2022-12-15T08:42:13.535Z,96993.75
2022-12-15T08:44:42.051Z,96998.94
2022-12-15T08:47:10.496Z,96984.22
2022-12-15T08:49:38.957Z,96990.16
2022-12-15T08:52:07.344Z,96993.47
2022-12-15T08:54:35.831Z,96997.16
2022-12-15T08:57:04.513Z,97002.06
2022-12-15T08:59:32.901Z,97012.69
2022-12-15T09:02:01.584Z,97014.91
2022-12-15T09:04:30.222Z,97008.41
2022-12-15T09:06:58.718Z,97018.69
2022-12-15T09:09:27.146Z,97011.34
2022-12-15T09:11:55.685Z,97011.28
2022-12-15T09:14:29.064Z,97012.72
2022-12-15T09:16:58.230Z,97005.69
2022-12-15T09:19:26.788Z,97011.44
2022-12-15T09:21:56.626Z,97003.75
2022-12-15T09:24:34.414Z,97015.38
2022-12-15T09:27:03.923Z,97011.38
2022-12-15T09:29:32.760Z,97003.47
2022-12-15T09:32:02.725Z,97013.19
2022-12-15T09:34:31.141Z,97007.84
2022-12-15T09:36:59.725Z,97017.16
2022-12-15T09:39:28.266Z,97027.94
2022-12-15T09:41:59.824Z,97009.53
2022-12-15T09:44:30.260Z,97014.22
2022-12-15T09:47:12.269Z,97010.19
2022-12-15T09:49:59.236Z,97012.50
2022-12-15T09:52:48.771Z,97007.50
2022-12-15T09:55:24.981Z,97028.25
2022-12-15T09:58:10.768Z,97012.78
2022-12-15T10:00:55.687Z,97025.75
2022-12-15T10:03:47.120Z,97030.75
2022-12-15T10:06:21.770Z,97027.19
2022-12-15T10:08:57.052Z,97018.97
2022-12-15T10:11:43.861Z,97007.75
2022-12-15T10:14:33.329Z,97004.16
2022-12-15T10:17:07.645Z,97015.09
2022-12-15T10:19:57.517Z,97022.09
2022-12-15T10:22:32.557Z,97025.41
2022-12-15T10:25:29.450Z,97020.63
2022-12-15T10:28:27.729Z,97016.03
2022-12-15T10:31:02.541Z,97029.22
2022-12-15T10:33:35.453Z,97024.81
2022-12-15T10:36:11.869Z,97014.13
2022-12-15T10:38:50.481Z,97005.88
2022-12-15T10:41:22.929Z,97000.00
2022-12-15T10:43:52.283Z,96983.06
2022-12-15T10:46:26.112Z,96988.19
2022-12-15T10:49:08.151Z,96985.00
2022-12-15T10:51:42.853Z,96990.56
2022-12-15T10:54:14.909Z,96985.81
2022-12-15T10:56:58.208Z,96998.00
2022-12-15T10:59:32.587Z,97007.91
2022-12-15T11:02:26.159Z,96999.94
2022-12-15T11:05:16.113Z,97002.38
2022-12-15T11:07:55.199Z,96999.81
2022-12-15T11:10:28.673Z,97001.97
2022-12-15T11:13:11.973Z,96999.63
2022-12-15T11:18:50.089Z,97002.97
2022-12-15T11:21:23.232Z,97001.22
2022-12-15T11:24:19.616Z,96998.06
2022-12-15T11:26:59.159Z,96999.22
2022-12-15T11:29:52.003Z,97005.47
2022-12-15T11:32:23.387Z,97001.78
2022-12-15T11:34:51.846Z,97007.41
2022-12-15T11:37:42.166Z,97005.13
2022-12-15T11:40:41.380Z,97013.78
2022-12-15T11:43:18.833Z,97003.56
2022-12-15T11:46:02.378Z,96989.59
2022-12-15T11:49:12.341Z,96980.53
2022-12-15T11:51:43.779Z,96998.56
2022-12-15T11:54:39.238Z,96998.22
2022-12-15T11:57:19.999Z,97004.72
2022-12-15T11:59:58.042Z,96998.03
2022-12-15T12:02:53.456Z,97003.78
2022-12-15T12:05:43.343Z,96992.13
2022-12-15T12:08:31.487Z,97003.16
2022-12-15T12:11:16.042Z,96985.44
2022-12-15T12:14:09.681Z,97005.75
2022-12-15T12:16:56.221Z,97017.13
2022-12-15T12:19:50.836Z,97003.19
2022-12-15T12:22:25.247Z,97017.31
2022-12-15T12:25:02.090Z,97015.34
2022-12-15T12:27:48.723Z,97021.63
2022-12-15T12:30:23.197Z,97014.94
2022-12-15T12:33:19.328Z,97017.28
2022-12-15T12:35:51.587Z,97018.06
2022-12-15T12:38:25.076Z,97015.97
2022-12-15T12:41:03.659Z,97014.22
2022-12-15T12:44:02.595Z,97022.88
2022-12-15T12:46:36.264Z,97020.13
2022-12-15T12:49:27.365Z,97014.56
2022-12-15T12:51:57.865Z,97022.88
2022-12-15T12:54:37.093Z,97029.38
2022-12-15T12:57:14.564Z,97032.69
2022-12-15T12:59:48.988Z,97029.53
2022-12-15T13:02:26.168Z,97042.56
2022-12-15T13:05:06.596Z,97041.56
2022-12-15T13:07:40.655Z,97041.75
2022-12-15T13:10:08.981Z,97033.66
2022-12-15T13:12:53.947Z,97037.56
2022-12-15T13:15:31.619Z,97029.03
2022-12-15T13:18:16.325Z,97034.25
2022-12-15T13:20:50.585Z,97028.69
2022-12-15T13:23:22.388Z,97017.28
2022-12-15T13:25:56.852Z,97021.97
2022-12-15T13:28:28.054Z,97024.53
2022-12-15T13:31:19.105Z,97019.94
2022-12-15T13:33:52.046Z,97024.78
2022-12-15T13:36:42.526Z,97019.88
2022-12-15T13:39:17.016Z,97024.06
2022-12-15T13:44:52.077Z,97035.97
2022-12-15T13:47:30.227Z,97030.00
2022-12-15T13:50:02.891Z,97041.13
2022-12-15T13:53:16.599Z,97045.63
2022-12-15T13:55:34.450Z,97038.06
2022-12-15T13:58:14.110Z,97053.66
2022-12-15T14:00:55.597Z,97042.41
2022-12-15T14:03:24.328Z,97046.31
2022-12-15T14:05:54.080Z,97039.00
2022-12-15T14:08:23.654Z,97045.69
2022-12-15T14:10:57.083Z,97041.94
2022-12-15T14:13:34.839Z,97046.06
2022-12-15T14:16:18.255Z,97051.31
2022-12-15T14:18:47.018Z,97041.56
2022-12-15T14:21:23.754Z,97052.66
2022-12-15T14:24:28.459Z,97050.63
2022-12-15T14:26:41.762Z,97059.16
2022-12-15T14:29:10.209Z,97063.56
2022-12-15T14:31:39.364Z,97057.81
2022-12-15T14:34:11.307Z,97063.56
2022-12-15T14:36:40.503Z,97069.06
2022-12-15T14:39:17.882Z,97074.00
2022-12-15T14:41:49.041Z,97084.22
2022-12-15T14:44:38.381Z,97075.59
2022-12-15T14:47:08.878Z,97093.34
2022-12-15T14:49:40.700Z,97095.53
2022-12-15T14:52:22.336Z,97106.34
2022-12-15T14:54:58.867Z,97100.84
2022-12-15T14:57:47.580Z,97123.72
2022-12-15T15:00:33.142Z,97114.25
2022-12-15T15:03:06.889Z,96998.66
2022-12-15T15:05:52.241Z,97112.31
2022-12-15T15:08:30.517Z,97120.97
2022-12-15T15:11:17.877Z,97119.00
2022-12-15T15:13:46.828Z,97129.03
2022-12-15T15:16:19.312Z,97132.13
2022-12-15T15:18:52.373Z,97117.00
2022-12-15T15:21:38.934Z,97116.56
2022-12-15T15:24:11.032Z,97112.97
2022-12-15T15:26:40.437Z,97108.09
2022-12-15T15:29:30.540Z,97112.97
2022-12-15T15:32:18.206Z,97112.03
2022-12-15T15:34:47.566Z,97117.72
2022-12-15T15:37:25.417Z,97127.56
2022-12-15T15:39:54.728Z,97118.13
2022-12-15T15:42:29.133Z,97137.00
2022-12-15T15:45:00.762Z,97131.50
2022-12-15T15:47:29.159Z,97134.59
2022-12-15T15:49:59.043Z,97126.28
2022-12-15T15:52:28.757Z,97129.31
2022-12-15T15:54:57.142Z,97132.06
2022-12-15T15:57:25.743Z,97134.19
2022-12-15T15:59:54.192Z,97145.44
2022-12-15T16:02:22.837Z,97129.53
2022-12-15T16:04:52.448Z,97145.69
2022-12-15T16:07:25.205Z,97143.13
2022-12-15T16:09:53.841Z,97143.63
2022-12-15T16:12:35.095Z,97136.63
2022-12-15T16:15:21.305Z,97151.94
2022-12-15T16:17:50.038Z,97132.44
2022-12-15T16:20:19.951Z,97140.28
2022-12-15T16:22:57.896Z,97161.91
2022-12-15T16:25:26.405Z,97154.97
2022-12-15T16:27:55.610Z,97161.47
2022-12-15T16:30:26.378Z,97153.97
2022-12-15T16:32:55.764Z,97158.84
2022-12-15T16:35:27.022Z,97159.03
2022-12-15T16:37:55.687Z,97169.78
2022-12-15T16:40:28.062Z,97164.97
2022-12-15T16:43:01.364Z,97162.75
2022-12-15T16:45:31.260Z,97174.19
2022-12-15T16:48:00.004Z,97173.59
2022-12-15T16:50:34.511Z,97188.72
2022-12-15T16:53:04.853Z,97181.84
2022-12-15T16:55:38.214Z,97183.88
2022-12-15T16:58:11.561Z,97176.75
2022-12-15T17:00:40.620Z,97189.88
2022-12-15T17:03:17.317Z,97186.00
2022-12-15T17:05:50.871Z,97186.75
2022-12-15T17:08:25.804Z,97203.31
2022-12-15T17:10:54.479Z,97194.66
2022-12-15T17:13:42.067Z,97199.88
2022-12-15T17:16:15.751Z,97205.81
2022-12-15T17:18:44.723Z,97206.94
2022-12-15T17:21:29.874Z,97211.19
2022-12-15T17:24:12.441Z,97223.56
2022-12-15T17:26:41.244Z,97227.03
2022-12-15T17:29:17.294Z,97227.63
2022-12-15T17:31:46.729Z,97223.22
2022-12-15T17:34:34.770Z,97223.31
2022-12-15T17:37:06.098Z,97227.44
2022-12-15T17:39:36.783Z,97225.53
2022-12-15T17:42:18.495Z,97232.84
2022-12-15T17:44:48.346Z,97230.81
2022-12-15T17:47:18.184Z,97240.53
2022-12-15T17:49:48.868Z,97229.03
2022-12-15T17:52:30.534Z,97228.78
2022-12-15T17:54:59.713Z,97228.22
2022-12-15T17:57:32.849Z,97221.88
2022-12-15T18:00:02.366Z,97232.75
2022-12-15T18:02:35.522Z,97211.16
2022-12-15T18:05:05.158Z,97213.63
2022-12-15T18:07:34.875Z,97218.22
2022-12-15T18:10:03.671Z,97217.13
2022-12-15T18:12:33.184Z,97216.38
2022-12-15T18:15:01.853Z,97218.97
2022-12-15T18:17:30.578Z,97228.88
2022-12-15T18:19:59.228Z,97227.44
2022-12-15T18:22:32.097Z,97227.34
2022-12-15T18:25:03.524Z,97230.41
2022-12-15T18:27:34.527Z,97216.72
2022-12-15T18:30:05.913Z,97215.28
2022-12-15T18:32:40.560Z,97217.75
2022-12-15T18:35:20.517Z,97231.53
2022-12-15T18:37:52.867Z,97228.00
2022-12-15T18:40:24.166Z,97238.88
2022-12-15T18:42:54.666Z,97222.25
2022-12-15T18:45:27.934Z,97229.50
2022-12-15T18:47:56.898Z,97223.66
2022-12-15T18:50:26.718Z,97221.59
2022-12-15T18:52:59.755Z,97229.06
2022-12-15T18:55:30.774Z,97227.75
2022-12-15T18:58:00.681Z,97229.75
2022-12-15T19:00:30.751Z,97227.91
2022-12-15T19:03:00.580Z,97240.28
2022-12-15T19:05:29.457Z,97245.81
2022-12-15T19:08:25.235Z,97240.66
2022-12-15T19:10:56.662Z,97219.44
2022-12-15T19:13:28.876Z,97229.19
2022-12-15T19:15:58.701Z,97214.22
2022-12-15T19:18:47.165Z,97205.19
2022-12-15T19:21:43.646Z,97217.75
2022-12-15T19:24:50.711Z,97219.00
2022-12-15T19:27:27.408Z,97200.09
2022-12-15T19:29:56.347Z,97203.03
2022-12-15T19:32:25.274Z,97201.09
2022-12-15T19:34:54.339Z,97182.94
2022-12-15T19:37:30.733Z,97206.41
2022-12-15T19:39:59.808Z,97210.13
2022-12-15T19:42:33.740Z,97204.13
2022-12-15T19:45:13.741Z,97193.50
2022-12-15T19:47:42.401Z,97207.41
2022-12-15T19:50:15.761Z,97214.97
2022-12-15T19:52:45.268Z,97226.28
2022-12-15T19:55:15.883Z,97223.44
2022-12-15T19:57:44.764Z,97223.75
2022-12-15T20:00:17.604Z,97220.97
2022-12-15T20:02:46.167Z,97232.97
2022-12-15T20:05:16.059Z,97222.81
2022-12-15T20:07:46.124Z,97223.44
2022-12-15T20:10:32.171Z,97232.19
2022-12-15T20:13:02.213Z,97229.63
2022-12-15T20:15:30.686Z,97239.97
2022-12-15T20:17:59.474Z,97240.19
2022-12-15T20:20:28.586Z,97242.50
2022-12-15T20:22:59.794Z,97240.22
2022-12-15T20:25:30.909Z,97236.53
2022-12-15T20:28:01.507Z,97232.34
2022-12-15T20:30:33.584Z,97244.38
2022-12-15T20:33:03.355Z,97229.28
2022-12-15T20:35:33.571Z,97224.31
2022-12-15T20:38:06.044Z,97235.97
2022-12-15T20:40:35.558Z,97244.25
2022-12-15T20:43:06.751Z,97239.50
2022-12-15T20:45:35.233Z,97240.94
2022-12-15T20:48:03.705Z,97239.13
2022-12-15T20:50:37.687Z,97240.50
2022-12-15T20:53:06.500Z,97247.19
2022-12-15T20:55:35.336Z,97245.69
2022-12-15T20:58:05.625Z,97240.59
2022-12-15T21:00:34.157Z,97227.00
2022-12-15T21:03:02.775Z,97229.31
2022-12-15T21:05:32.308Z,97231.97
2022-12-15T21:08:00.766Z,97213.06
2022-12-15T21:10:29.226Z,97209.34
2022-12-15T21:12:57.648Z,97213.81
2022-12-15T21:15:26.703Z,97208.38
2022-12-15T21:18:16.957Z,97209.09
2022-12-15T21:20:44.206Z,97209.09
2022-12-15T21:23:25.446Z,97217.41
2022-12-15T21:25:53.955Z,97227.72
2022-12-15T21:28:23.537Z,97224.00
2022-12-15T21:30:52.897Z,97223.22
2022-12-15T21:33:21.852Z,97244.03
2022-12-15T21:35:50.381Z,97220.59
2022-12-15T21:38:41.051Z,97222.59
2022-12-15T21:41:13.323Z,97209.56
2022-12-15T21:43:41.848Z,97205.72
2022-12-15T21:46:14.780Z,97188.88
2022-12-15T21:49:02.315Z,97186.06
2022-12-15T21:51:35.295Z,97186.19
2022-12-15T21:54:04.026Z,97182.19
2022-12-15T21:56:32.423Z,97175.84
2022-12-15T21:59:01.495Z,97164.53
2022-12-15T22:01:30.757Z,97167.97
2022-12-15T22:03:59.322Z,97174.81
2022-12-15T22:06:30.000Z,97161.00
2022-12-15T22:08:59.344Z,97166.78
2022-12-15T22:11:29.342Z,97170.69
2022-12-15T22:13:59.314Z,97164.59
2022-12-15T22:16:27.916Z,97160.22
2022-12-15T22:18:57.607Z,97158.66
2022-12-15T22:21:26.000Z,97146.69
2022-12-15T22:23:55.701Z,97164.69
2022-12-15T22:26:31.314Z,97170.75
2022-12-15T22:29:00.872Z,97179.69
2022-12-15T22:31:29.585Z,97171.38
2022-12-15T22:33:58.094Z,97167.97
2022-12-15T22:36:26.674Z,97170.06
2022-12-15T22:38:55.280Z,97159.47
2022-12-15T22:41:23.698Z,97170.50
2022-12-15T22:43:53.810Z,97168.66
2022-12-15T22:46:24.767Z,97161.81
2022-12-15T22:48:53.170Z,97151.84
2022-12-15T22:51:23.788Z,97138.53
2022-12-15T22:53:52.277Z,97134.72
2022-12-15T22:56:25.310Z,97117.94
2022-12-15T22:59:00.083Z,97117.16
2022-12-15T23:01:28.707Z,97112.00
2022-12-15T23:03:57.179Z,97107.69
2022-12-15T23:06:27.563Z,97072.34
2022-12-15T23:08:56.779Z,97093.88
2022-12-15T23:11:37.931Z,97074.41
2022-12-15T23:14:17.295Z,97084.63
2022-12-15T23:16:46.036Z,97082.94
2022-12-15T23:19:24.558Z,97091.63
2022-12-15T23:21:52.949Z,97090.75
2022-12-15T23:24:21.994Z,97084.88
2022-12-15T23:26:50.388Z,97103.34
2022-12-15T23:29:18.868Z,97090.31
2022-12-15T23:31:47.697Z,97105.28
2022-12-15T23:34:16.718Z,97094.41
2022-12-15T23:36:45.057Z,97118.72
2022-12-15T23:39:13.543Z,97074.81
2022-12-15T23:41:41.895Z,97060.97
2022-12-15T23:44:12.561Z,97115.31
2022-12-15T23:46:41.076Z,97073.53
2022-12-15T23:49:09.637Z,97108.72
2022-12-15T23:51:38.014Z,97092.34
2022-12-15T23:54:06.376Z,97124.38
2022-12-15T23:56:34.684Z,97105.38
2022-12-15T23:59:03.078Z,97128.97
